Time;durP1;ratioP1;P1;durP2;ratioP2;P2;SDS_P1;SDS_P2;PMS_P1;PMS_P2;Temp;Humidity;BMP_temperature;BMP_pressure;BME280_temperature;BME280_humidity;BME280_pressure;Samples;Min_cycle;Max_cycle;Signal;HPM_P1;HPM_P2
2022/03/19 00:01:32;;;;;;;55.30;38.10;;;4.90;99.90;;;;;;5010789;28;20226;-72
2022/03/19 00:03:59;;;;;;;60.00;39.53;;;4.80;99.90;;;;;;5010745;28;20696;-73
2022/03/19 00:06:25;;;;;;;59.92;39.00;;;4.90;99.90;;;;;;5010892;28;20234;-72
2022/03/19 00:08:53;;;;;;;56.38;38.15;;;4.90;99.90;;;;;;5010905;28;20209;-73
2022/03/19 00:11:22;;;;;;;61.60;40.40;;;4.90;99.90;;;;;;5010139;28;20644;-72
2022/03/19 00:13:49;;;;;;;55.05;39.13;;;4.80;99.90;;;;;;5011200;28;20209;-72
2022/03/19 00:16:15;;;;;;;59.65;39.63;;;4.80;99.90;;;;;;5010445;28;20254;-73
2022/03/19 00:18:43;;;;;;;54.03;37.60;;;4.80;99.90;;;;;;5010323;28;20203;-73
2022/03/19 00:21:10;;;;;;;57.72;37.38;;;4.80;99.90;;;;;;5010631;28;20272;-72
2022/03/19 00:23:37;;;;;;;56.58;37.17;;;4.70;99.90;;;;;;5010299;28;20222;-73
2022/03/19 00:26:03;;;;;;;55.08;36.80;;;4.70;99.90;;;;;;5010354;28;20229;-72
2022/03/19 00:28:30;;;;;;;54.50;37.22;;;4.70;99.90;;;;;;5010133;28;20218;-73
2022/03/19 00:30:57;;;;;;;58.78;36.65;;;4.60;99.90;;;;;;5010912;28;20202;-72
2022/03/19 00:33:23;;;;;;;54.58;36.60;;;4.60;99.90;;;;;;5010052;28;20253;-73
2022/03/19 00:35:52;;;;;;;54.38;37.53;;;4.60;99.90;;;;;;5010253;28;20273;-73
2022/03/19 00:38:19;;;;;;;55.70;39.65;;;4.60;99.90;;;;;;5010071;28;20297;-73
2022/03/19 00:40:46;;;;;;;55.17;34.83;;;4.60;99.90;;;;;;5010696;28;20206;-73
2022/03/19 00:43:13;;;;;;;52.92;36.45;;;4.60;99.90;;;;;;5010407;28;20261;-73
2022/03/19 00:45:40;;;;;;;49.45;33.75;;;4.60;99.90;;;;;;5010995;28;20237;-73
2022/03/19 00:48:06;;;;;;;50.60;36.40;;;4.50;99.90;;;;;;5009344;28;20198;-73
2022/03/19 00:50:33;;;;;;;52.28;37.30;;;4.50;99.90;;;;;;5010238;28;20211;-73
2022/03/19 00:53:01;;;;;;;54.97;38.25;;;4.60;99.90;;;;;;5010488;28;20206;-73
2022/03/19 00:55:28;;;;;;;58.20;38.55;;;4.50;99.90;;;;;;5009405;28;20721;-73
2022/03/19 00:57:54;;;;;;;51.67;37.25;;;4.50;99.90;;;;;;5010084;28;20581;-73
2022/03/19 01:00:24;;;;;;;57.33;38.38;;;4.50;99.90;;;;;;5009554;28;20206;-73
2022/03/19 01:02:52;;;;;;;58.13;38.25;;;4.50;99.90;;;;;;5009884;28;20229;-73
2022/03/19 01:05:19;;;;;;;52.78;35.42;;;4.50;99.90;;;;;;5009794;28;20222;-73
2022/03/19 01:07:47;;;;;;;54.45;35.78;;;4.40;99.90;;;;;;5009465;28;20210;-73
2022/03/19 01:10:19;;;;;;;55.03;37.30;;;4.40;99.90;;;;;;5009614;28;20202;-73
2022/03/19 01:12:46;;;;;;;50.50;34.40;;;4.40;99.90;;;;;;5009646;28;20210;-73
2022/03/19 01:15:13;;;;;;;53.25;35.00;;;4.40;99.90;;;;;;5009679;28;20222;-72
2022/03/19 01:17:40;;;;;;;57.17;37.65;;;4.40;99.90;;;;;;5009219;28;20583;-73
2022/03/19 01:20:10;;;;;;;55.70;35.83;;;4.40;99.90;;;;;;5009949;28;20202;-72
2022/03/19 01:22:37;;;;;;;52.03;35.25;;;4.40;99.90;;;;;;5010137;28;20300;-73
2022/03/19 01:25:05;;;;;;;51.70;35.10;;;4.40;99.90;;;;;;5008680;28;20223;-73
2022/03/19 01:27:33;;;;;;;50.03;36.38;;;4.30;99.90;;;;;;5009363;28;20211;-73
2022/03/19 01:30:01;;;;;;;56.17;34.97;;;4.30;99.90;;;;;;5009972;28;20670;-73
2022/03/19 01:32:28;;;;;;;56.20;36.00;;;4.30;99.90;;;;;;5009563;28;20203;-73
2022/03/19 01:34:55;;;;;;;49.65;34.88;;;4.30;99.90;;;;;;5009482;28;20225;-73
2022/03/19 01:37:22;;;;;;;56.05;36.03;;;4.30;99.90;;;;;;5009226;28;20594;-73
2022/03/19 01:39:49;;;;;;;53.65;34.78;;;4.20;99.90;;;;;;5012388;28;20210;-72
2022/03/19 01:42:23;;;;;;;47.30;32.95;;;4.20;99.90;;;;;;5013835;28;20222;-73
2022/03/19 01:44:51;;;;;;;50.95;34.85;;;4.20;99.90;;;;;;5013355;28;20667;-73
2022/03/19 01:47:18;;;;;;;53.15;35.38;;;4.20;99.90;;;;;;5012720;28;20213;-73
2022/03/19 01:49:45;;;;;;;50.90;35.38;;;4.20;99.90;;;;;;5013181;28;20582;-72
2022/03/19 01:52:12;;;;;;;48.08;33.85;;;4.20;99.90;;;;;;5013104;28;20701;-72
2022/03/19 01:54:42;;;;;;;50.75;34.45;;;4.20;99.90;;;;;;5012885;28;20250;-73
2022/03/19 01:57:11;;;;;;;48.50;34.63;;;4.10;99.90;;;;;;5012889;28;20213;-72
2022/03/19 01:59:38;;;;;;;46.13;33.78;;;4.10;99.90;;;;;;5013884;28;20576;-73
2022/03/19 02:02:08;;;;;;;46.97;33.33;;;4.00;99.90;;;;;;5012703;28;20226;-72
2022/03/19 02:04:36;;;;;;;51.28;34.83;;;4.00;99.90;;;;;;5012907;28;20322;-72
2022/03/19 02:07:04;;;;;;;52.35;34.90;;;4.00;99.90;;;;;;5012188;28;20586;-73
2022/03/19 02:09:30;;;;;;;47.08;33.85;;;3.90;99.90;;;;;;5012214;28;20206;-73
2022/03/19 02:11:57;;;;;;;50.22;33.65;;;3.90;99.90;;;;;;5012887;28;20210;-73
2022/03/19 02:14:24;;;;;;;49.10;33.95;;;3.90;99.90;;;;;;5011477;28;20218;-72
2022/03/19 02:16:51;;;;;;;49.33;33.80;;;3.90;99.90;;;;;;5009119;28;20210;-73
2022/03/19 02:19:19;;;;;;;46.08;33.22;;;3.90;99.90;;;;;;5012131;28;20202;-73
2022/03/19 02:21:47;;;;;;;49.95;33.53;;;3.90;99.90;;;;;;5012761;28;20206;-73
2022/03/19 02:27:01;;;;;;;47.17;32.65;;;3.90;99.90;;;;;;5011413;28;20253;-73
2022/03/19 02:29:28;;;;;;;50.10;34.03;;;3.80;99.90;;;;;;5012233;28;20210;-72
2022/03/19 02:31:57;;;;;;;47.35;33.95;;;3.80;99.90;;;;;;5012134;28;20237;-73
2022/03/19 02:34:24;;;;;;;46.92;33.63;;;3.80;99.90;;;;;;5013009;28;20622;-73
2022/03/19 02:36:51;;;;;;;49.35;32.70;;;3.80;99.90;;;;;;5012610;28;20591;-73
2022/03/19 02:39:21;;;;;;;54.42;33.38;;;3.80;99.90;;;;;;5012741;28;20803;-72
2022/03/19 02:41:49;;;;;;;49.90;32.75;;;3.80;99.90;;;;;;5013153;28;20221;-73
2022/03/19 02:44:18;;;;;;;50.35;33.55;;;3.70;99.90;;;;;;5012549;28;20234;-72
2022/03/19 02:46:46;;;;;;;52.33;33.53;;;3.70;99.90;;;;;;5012534;28;20209;-73
2022/03/19 02:49:13;;;;;;;47.10;32.67;;;3.70;99.90;;;;;;5012319;28;20211;-73
2022/03/19 02:51:42;;;;;;;45.47;31.65;;;3.70;99.90;;;;;;5013045;28;20210;-73
2022/03/19 02:54:10;;;;;;;45.80;32.85;;;3.70;99.90;;;;;;5012562;28;20721;-73
2022/03/19 02:56:40;;;;;;;46.08;31.88;;;3.70;99.90;;;;;;5012398;28;20206;-72
2022/03/19 02:59:08;;;;;;;48.53;32.85;;;3.70;99.90;;;;;;5012567;28;20202;-73
2022/03/19 03:01:35;;;;;;;47.15;32.03;;;3.60;99.90;;;;;;5012665;28;20210;-73
2022/03/19 03:04:02;;;;;;;47.10;33.17;;;3.60;99.90;;;;;;5012282;28;20705;-73
2022/03/19 03:06:29;;;;;;;49.35;33.80;;;3.60;99.90;;;;;;5012313;28;20218;-73
2022/03/19 03:08:55;;;;;;;47.90;30.27;;;3.60;99.90;;;;;;5012213;28;20206;-73
2022/03/19 03:11:22;;;;;;;45.20;32.22;;;3.60;99.90;;;;;;5012154;28;20214;-72
2022/03/19 03:13:50;;;;;;;45.78;31.58;;;3.60;99.90;;;;;;5012676;28;20202;-73
2022/03/19 03:16:17;;;;;;;50.38;31.27;;;3.50;99.90;;;;;;5012136;28;20253;-73
2022/03/19 03:18:44;;;;;;;45.22;31.48;;;3.50;99.90;;;;;;5011999;28;20202;-73
2022/03/19 03:21:11;;;;;;;53.67;33.33;;;3.50;99.90;;;;;;5012114;28;20207;-72
2022/03/19 03:23:38;;;;;;;47.88;31.77;;;3.50;99.90;;;;;;5012492;28;20686;-73
2022/03/19 03:26:04;;;;;;;52.58;34.03;;;3.50;99.90;;;;;;5012179;28;20709;-72
2022/03/19 03:28:31;;;;;;;50.35;31.05;;;3.40;99.90;;;;;;5011525;28;20203;-73
2022/03/19 03:30:59;;;;;;;43.15;31.40;;;3.50;99.90;;;;;;5012285;28;20689;-72
2022/03/19 03:33:26;;;;;;;46.60;31.98;;;3.40;99.90;;;;;;5011874;28;20647;-72
2022/03/19 03:35:52;;;;;;;47.45;32.45;;;3.40;99.90;;;;;;5012089;28;20233;-73
2022/03/19 03:38:19;;;;;;;42.22;31.42;;;3.40;99.90;;;;;;5011185;28;20198;-72
2022/03/19 03:40:46;;;;;;;50.47;31.92;;;3.30;99.90;;;;;;5012101;28;20708;-72
2022/03/19 03:43:13;;;;;;;42.20;29.63;;;3.30;99.90;;;;;;5011471;28;20224;-73
2022/03/19 03:45:40;;;;;;;44.88;32.22;;;3.30;99.90;;;;;;5012180;28;20592;-72
2022/03/19 03:48:09;;;;;;;47.58;29.88;;;3.30;99.90;;;;;;5011505;28;20241;-72
2022/03/19 03:50:36;;;;;;;46.17;30.20;;;3.30;99.90;;;;;;5011874;28;20625;-72
2022/03/19 03:53:04;;;;;;;45.53;31.38;;;3.30;99.90;;;;;;5011867;28;20198;-72
2022/03/19 03:55:31;;;;;;;45.00;30.52;;;3.30;99.90;;;;;;5011517;28;20740;-72
2022/03/19 03:57:58;;;;;;;49.38;31.42;;;3.30;99.90;;;;;;5011318;28;20198;-73
2022/03/19 04:00:25;;;;;;;42.97;28.92;;;3.20;99.90;;;;;;5011370;28;20202;-72
2022/03/19 04:02:51;;;;;;;43.45;31.40;;;3.20;99.90;;;;;;5011295;28;20270;-72
2022/03/19 04:05:20;;;;;;;41.72;28.58;;;3.20;99.90;;;;;;5011303;28;20590;-72
2022/03/19 04:07:58;;;;;;;44.47;30.65;;;3.10;99.90;;;;;;5059248;22;20222;-94
2022/03/19 04:19:04;;;;;;;44.33;28.15;;;3.00;99.90;;;;;;5017767;22;20720;-78
2022/03/19 04:21:33;;;;;;;41.72;29.27;;;3.00;99.90;;;;;;5012612;28;20661;-79
2022/03/19 04:23:59;;;;;;;42.53;28.65;;;3.00;99.90;;;;;;5012329;28;20229;-78
2022/03/19 04:26:26;;;;;;;41.28;28.52;;;3.00;99.90;;;;;;4993129;28;20211;-79
2022/03/19 04:28:53;;;;;;;41.88;29.67;;;3.00;99.90;;;;;;4992222;28;20206;-79
2022/03/19 04:31:19;;;;;;;43.25;30.95;;;2.90;99.90;;;;;;4993778;28;20520;-78
2022/03/19 04:33:46;;;;;;;46.88;30.30;;;2.90;99.90;;;;;;4993123;28;20199;-78
2022/03/19 04:36:32;;;;;;;44.10;29.75;;;2.90;99.90;;;;;;4992625;28;20219;-77
2022/03/19 04:39:02;;;;;;;39.22;26.98;;;2.90;99.90;;;;;;4992590;28;20218;-79
2022/03/19 04:41:30;;;;;;;46.88;29.70;;;2.90;99.90;;;;;;4993176;28;20234;-78
2022/03/19 04:43:57;;;;;;;46.95;30.70;;;2.90;99.90;;;;;;4993316;28;20227;-78
2022/03/19 04:46:23;;;;;;;44.28;28.08;;;2.90;99.90;;;;;;4992610;28;20602;-79
2022/03/19 04:48:51;;;;;;;46.92;29.90;;;2.80;99.90;;;;;;4993064;28;20209;-79
2022/03/19 04:51:19;;;;;;;45.42;30.52;;;2.80;99.90;;;;;;4992301;28;20221;-78
2022/03/19 04:53:50;;;;;;;43.15;30.85;;;2.80;99.90;;;;;;4993053;28;20200;-78
2022/03/19 04:56:18;;;;;;;46.95;29.85;;;2.80;99.90;;;;;;4992736;28;20237;-78
2022/03/19 04:58:46;;;;;;;45.05;28.50;;;2.80;99.90;;;;;;4994701;28;20207;-78
2022/03/19 05:01:13;;;;;;;41.45;29.75;;;2.80;99.90;;;;;;4993325;28;20204;-78
2022/03/19 05:03:40;;;;;;;40.95;28.40;;;2.80;99.90;;;;;;4992714;28;20226;-78
2022/03/19 05:06:06;;;;;;;44.80;28.90;;;2.70;99.90;;;;;;4992736;28;20592;-78
2022/03/19 05:08:33;;;;;;;40.05;28.13;;;2.70;99.90;;;;;;4992126;28;20572;-78
2022/03/19 05:11:14;;;;;;;44.38;29.65;;;2.70;99.90;;;;;;4993298;28;20210;-78
2022/03/19 05:13:44;;;;;;;43.17;28.52;;;2.70;99.90;;;;;;5002134;28;20206;-78
2022/03/19 05:16:11;;;;;;;42.88;29.00;;;2.70;99.90;;;;;;4999819;28;20285;-78
2022/03/19 05:18:38;;;;;;;39.13;28.23;;;2.70;99.90;;;;;;4996089;28;20207;-78
2022/03/19 05:21:05;;;;;;;43.90;29.33;;;2.70;99.90;;;;;;4996542;28;20203;-78
2022/03/19 05:23:34;;;;;;;42.42;30.30;;;2.70;99.90;;;;;;4996516;28;20714;-77
2022/03/19 05:26:00;;;;;;;45.90;32.17;;;2.60;99.90;;;;;;4996322;28;20318;-78
2022/03/19 05:28:27;;;;;;;44.78;29.15;;;2.60;99.90;;;;;;4996255;28;20226;-76
2022/03/19 05:30:57;;;;;;;43.08;28.52;;;2.60;99.90;;;;;;4996568;28;20210;-77
2022/03/19 05:34:29;;;;;;;39.90;26.85;;;2.60;99.90;;;;;;4996387;28;20234;-77
2022/03/19 05:36:11;;;;;;;42.08;29.20;;;2.60;99.90;;;;;;4996201;28;20234;-78
2022/03/19 05:38:38;;;;;;;43.47;30.10;;;2.60;99.90;;;;;;4994724;28;20231;-78
2022/03/19 05:41:05;;;;;;;41.97;29.35;;;2.70;99.90;;;;;;4994271;28;20225;-78
2022/03/19 05:43:32;;;;;;;43.08;28.75;;;2.70;99.90;;;;;;4997150;28;20210;-78
2022/03/19 05:46:00;;;;;;;46.55;29.17;;;2.70;99.90;;;;;;4995974;28;20230;-78
2022/03/19 05:48:26;;;;;;;45.17;29.60;;;2.70;99.90;;;;;;4995657;28;20206;-79
2022/03/19 05:50:54;;;;;;;37.63;28.48;;;2.70;99.90;;;;;;4996015;28;20207;-79
2022/03/19 05:53:20;;;;;;;39.25;27.77;;;2.70;99.90;;;;;;4996178;28;20310;-79
2022/03/19 05:55:47;;;;;;;40.58;27.00;;;2.70;99.90;;;;;;4996398;28;20223;-79
2022/03/19 05:58:14;;;;;;;44.97;28.85;;;2.70;99.90;;;;;;4995396;28;20211;-80
2022/03/19 06:00:41;;;;;;;38.20;27.65;;;2.70;99.90;;;;;;4996150;28;20678;-79
2022/03/19 06:03:09;;;;;;;37.33;26.77;;;2.70;99.90;;;;;;4995843;28;20195;-79
2022/03/19 06:05:35;;;;;;;41.65;27.67;;;2.70;99.90;;;;;;4996084;28;20219;-79
2022/03/19 06:08:03;;;;;;;36.80;26.40;;;2.70;99.90;;;;;;4995125;28;20207;-77
2022/03/19 06:10:30;;;;;;;39.90;26.30;;;2.70;99.90;;;;;;4994617;28;20667;-78
2022/03/19 06:12:56;;;;;;;45.90;29.10;;;2.80;99.90;;;;;;4994798;28;20206;-78
2022/03/19 06:15:23;;;;;;;39.47;28.08;;;2.80;99.90;;;;;;4994700;28;20748;-78
2022/03/19 06:17:50;;;;;;;40.17;29.13;;;2.90;99.90;;;;;;4994541;28;20215;-78
2022/03/19 06:20:22;;;;;;;40.45;28.70;;;2.90;99.90;;;;;;4994639;28;20460;-76
2022/03/19 06:22:48;;;;;;;39.35;27.73;;;3.00;99.90;;;;;;4994249;28;20206;-75
2022/03/19 06:25:15;;;;;;;36.80;27.27;;;3.10;99.90;;;;;;4993316;28;20230;-75
2022/03/19 06:27:42;;;;;;;41.10;28.38;;;3.20;99.90;;;;;;4993563;28;20215;-75
2022/03/19 06:30:10;;;;;;;37.85;25.75;;;3.30;99.90;;;;;;4994147;28;20600;-75
2022/03/19 06:32:37;;;;;;;40.58;28.10;;;3.30;99.90;;;;;;4989942;28;20192;-74
2022/03/19 06:35:05;;;;;;;41.13;28.35;;;3.40;99.90;;;;;;4987240;28;20256;-75
2022/03/19 06:37:32;;;;;;;40.03;27.80;;;3.50;99.90;;;;;;4984004;28;20207;-75
2022/03/19 06:40:06;;;;;;;37.92;26.40;;;3.60;99.90;;;;;;4978410;28;20200;-75
2022/03/19 06:42:33;;;;;;;40.78;27.40;;;3.70;99.90;;;;;;4986041;28;20278;-75
2022/03/19 06:45:00;;;;;;;39.58;27.08;;;3.80;99.90;;;;;;4973537;28;20219;-75
2022/03/19 06:47:26;;;;;;;39.72;27.40;;;3.90;99.90;;;;;;4987989;28;20203;-75
2022/03/19 06:49:53;;;;;;;37.85;26.80;;;3.90;99.90;;;;;;4983604;28;20202;-75
2022/03/19 06:52:21;;;;;;;41.42;26.85;;;4.00;99.90;;;;;;4982897;28;20199;-75
2022/03/19 06:54:49;;;;;;;42.97;28.33;;;4.10;99.90;;;;;;4981397;28;20230;-75
2022/03/19 06:57:15;;;;;;;37.90;27.45;;;4.20;99.90;;;;;;4989846;28;20663;-74
2022/03/19 06:59:42;;;;;;;38.03;28.50;;;4.30;99.90;;;;;;4993220;28;20295;-73
2022/03/19 07:02:09;;;;;;;49.40;29.77;;;4.40;99.90;;;;;;4993056;28;20210;-73
2022/03/19 07:04:35;;;;;;;37.17;26.98;;;4.50;99.90;;;;;;4993130;28;20223;-73
2022/03/19 07:07:02;;;;;;;36.28;28.15;;;4.60;99.90;;;;;;4992375;28;20218;-72
2022/03/19 07:09:29;;;;;;;39.85;28.10;;;4.80;99.90;;;;;;4999857;28;20813;-73
2022/03/19 07:11:57;;;;;;;36.78;27.13;;;5.10;99.90;;;;;;4993010;28;20199;-73
2022/03/19 07:14:24;;;;;;;39.72;28.48;;;5.30;99.90;;;;;;4992784;28;20600;-73
2022/03/19 07:16:51;;;;;;;35.72;25.70;;;5.70;99.90;;;;;;4992283;28;20206;-73
2022/03/19 07:19:18;;;;;;;34.60;25.60;;;6.10;99.90;;;;;;4993158;28;20203;-73
2022/03/19 07:21:44;;;;;;;33.35;25.70;;;6.30;99.90;;;;;;4985653;28;20196;-73
2022/03/19 07:24:11;;;;;;;34.95;25.83;;;6.60;99.90;;;;;;4983074;28;20203;-73
2022/03/19 07:26:38;;;;;;;32.40;25.90;;;6.90;99.90;;;;;;4981095;28;20195;-73
2022/03/19 07:29:06;;;;;;;38.65;24.77;;;7.30;99.90;;;;;;4982956;28;20269;-74
2022/03/19 07:31:33;;;;;;;36.25;27.05;;;7.50;99.90;;;;;;4983326;28;20945;-73
2022/03/19 07:33:59;;;;;;;33.78;25.05;;;7.90;99.90;;;;;;4981053;28;20215;-73
2022/03/19 07:36:26;;;;;;;32.30;24.08;;;8.20;99.90;;;;;;4980211;28;20702;-72
2022/03/19 07:38:53;;;;;;;32.40;24.15;;;8.60;99.90;;;;;;4982639;28;20578;-72
2022/03/19 07:44:06;;;;;;;32.05;23.10;;;9.20;99.90;;;;;;4983281;28;20242;-73
2022/03/19 07:46:34;;;;;;;29.52;22.88;;;9.90;99.40;;;;;;4981593;28;20196;-73
2022/03/19 07:49:01;;;;;;;29.13;22.88;;;10.00;98.10;;;;;;4981502;28;20257;-73
2022/03/19 07:51:28;;;;;;;32.05;23.80;;;10.30;97.70;;;;;;4983241;28;20203;-73
2022/03/19 07:53:55;;;;;;;29.95;22.27;;;10.50;97.20;;;;;;4981931;28;20247;-73
2022/03/19 07:56:22;;;;;;;29.27;23.10;;;10.70;96.40;;;;;;4980670;28;20851;-73
2022/03/19 07:58:50;;;;;;;24.52;21.30;;;10.60;96.00;;;;;;4981952;28;20195;-73
2022/03/19 08:01:18;;;;;;;28.45;21.80;;;10.60;95.40;;;;;;4982904;28;20818;-73
2022/03/19 08:03:45;;;;;;;27.20;22.10;;;10.90;95.90;;;;;;4981112;28;20285;-73
2022/03/19 08:06:12;;;;;;;29.65;23.30;;;11.40;95.70;;;;;;4981863;28;20698;-75
2022/03/19 08:08:39;;;;;;;27.30;22.83;;;12.00;95.20;;;;;;4982027;28;20675;-75
2022/03/19 08:11:07;;;;;;;28.50;22.13;;;12.70;94.10;;;;;;4981304;28;20231;-72
2022/03/19 08:13:33;;;;;;;26.85;22.20;;;13.10;93.40;;;;;;4981600;28;20195;-73
2022/03/19 08:16:00;;;;;;;24.90;21.42;;;13.20;92.90;;;;;;4982579;28;20223;-74
2022/03/19 08:18:29;;;;;;;29.23;22.60;;;13.40;91.80;;;;;;4978846;28;20204;-74
2022/03/19 08:20:56;;;;;;;25.83;20.43;;;13.10;91.70;;;;;;4982496;28;20210;-74
2022/03/19 08:23:23;;;;;;;26.65;21.25;;;13.00;91.20;;;;;;4992406;28;20489;-73
2022/03/19 08:25:50;;;;;;;26.70;20.40;;;13.30;91.50;;;;;;4991560;28;20234;-73
2022/03/19 08:28:16;;;;;;;28.73;21.40;;;13.50;90.60;;;;;;4980989;28;21240;-74
2022/03/19 08:30:43;;;;;;;24.67;21.05;;;13.60;89.80;;;;;;4975902;28;20463;-72
2022/03/19 08:33:10;;;;;;;21.30;18.70;;;13.50;89.70;;;;;;4984873;28;20203;-73
2022/03/19 08:35:38;;;;;;;23.60;20.20;;;13.30;88.50;;;;;;4985717;28;20490;-73
2022/03/19 08:40:54;;;;;;;24.30;19.70;;;13.80;88.20;;;;;;4992615;28;20457;-73
2022/03/19 08:43:23;;;;;;;22.57;19.40;;;13.80;87.10;;;;;;4990623;28;20965;-74
2022/03/19 08:45:50;;;;;;;24.43;20.20;;;13.90;87.80;;;;;;4989382;28;20526;-74
2022/03/19 08:48:19;;;;;;;28.53;19.80;;;14.40;86.30;;;;;;4971406;28;20463;-73
2022/03/19 08:50:49;;;;;;;21.97;18.57;;;14.50;85.80;;;;;;4970222;28;20495;-72
2022/03/19 08:53:20;;;;;;;22.20;18.97;;;14.50;84.80;;;;;;4969940;28;20466;-74
2022/03/19 08:55:47;;;;;;;23.77;18.20;;;14.40;83.50;;;;;;4969801;28;20787;-72
2022/03/19 08:58:15;;;;;;;21.33;18.67;;;14.50;83.70;;;;;;4969876;28;20471;-74
2022/03/19 09:00:45;;;;;;;19.93;17.50;;;14.90;82.80;;;;;;4970997;28;20459;-73
2022/03/19 09:03:13;;;;;;;22.10;18.57;;;15.30;82.80;;;;;;4971484;28;20890;-74
2022/03/19 09:05:40;;;;;;;21.90;17.90;;;15.50;82.20;;;;;;4970053;28;20554;-73
2022/03/19 09:08:11;;;;;;;22.90;18.90;;;15.80;81.50;;;;;;4984854;28;20457;-72
2022/03/19 09:10:38;;;;;;;23.20;19.40;;;15.60;79.90;;;;;;4989504;28;20469;-73
2022/03/19 09:13:08;;;;;;;24.90;19.90;;;15.70;80.50;;;;;;4990168;28;20467;-72
2022/03/19 09:15:43;;;;;;;22.20;18.60;;;15.90;81.10;;;;;;4991132;28;20576;-75
2022/03/19 09:18:09;;;;;;;20.40;18.20;;;16.70;79.00;;;;;;4990235;28;20469;-74
2022/03/19 09:20:48;;;;;;;21.80;19.43;;;17.20;77.80;;;;;;4992142;28;20473;-73
2022/03/19 09:23:18;;;;;;;22.80;18.47;;;17.20;76.60;;;;;;4993253;28;21039;-74
2022/03/19 09:25:44;;;;;;;20.37;17.50;;;17.50;75.70;;;;;;4991886;28;20489;-73
2022/03/19 09:28:11;;;;;;;20.53;18.20;;;17.90;77.10;;;;;;4989337;28;20842;-73
2022/03/19 09:30:38;;;;;;;20.93;18.60;;;18.40;75.70;;;;;;4990102;28;20868;-75
2022/03/19 09:33:05;;;;;;;23.17;19.30;;;18.50;75.50;;;;;;4989959;28;20462;-73
2022/03/19 09:35:32;;;;;;;22.30;19.33;;;18.90;74.40;;;;;;4990232;28;20474;-73
2022/03/19 09:37:58;;;;;;;21.63;19.40;;;18.70;73.90;;;;;;4990079;28;20462;-74
2022/03/19 09:40:26;;;;;;;20.43;18.30;;;18.90;72.30;;;;;;4989828;28;20462;-73
2022/03/19 09:42:55;;;;;;;22.27;18.67;;;19.00;73.00;;;;;;4990460;28;20842;-73
2022/03/19 09:45:23;;;;;;;23.27;20.40;;;19.70;73.30;;;;;;4990112;28;20501;-73
2022/03/19 09:47:51;;;;;;;21.40;19.20;;;20.00;71.40;;;;;;4989125;28;20468;-73
2022/03/19 09:50:18;;;;;;;22.20;19.90;;;19.70;71.90;;;;;;4989934;28;20462;-74
2022/03/19 09:52:50;;;;;;;22.20;19.90;;;19.70;69.40;;;;;;4989402;28;20473;-73
2022/03/19 09:55:18;;;;;;;22.07;19.77;;;20.00;70.80;;;;;;4990133;28;20486;-73
2022/03/19 09:57:46;;;;;;;22.70;18.80;;;20.40;70.60;;;;;;4988867;28;20546;-73
2022/03/19 10:00:14;;;;;;;23.17;20.63;;;20.80;69.70;;;;;;4992149;28;20872;-73
2022/03/19 10:02:51;;;;;;;22.77;20.30;;;20.50;68.60;;;;;;4993053;28;20461;-73
2022/03/19 10:10:48;;;;;;;22.63;20.33;;;20.90;69.00;;;;;;4993042;28;20508;-73
2022/03/19 10:13:16;;;;;;;22.30;19.90;;;20.30;67.30;;;;;;4993408;28;20977;-73
2022/03/19 10:15:44;;;;;;;23.07;20.50;;;20.10;68.50;;;;;;4993140;28;20482;-73
2022/03/19 10:18:11;;;;;;;21.97;19.67;;;20.20;68.70;;;;;;4991853;28;20470;-73
2022/03/19 10:20:39;;;;;;;21.57;19.37;;;20.40;70.00;;;;;;4993220;28;20472;-73
2022/03/19 10:23:06;;;;;;;21.20;19.00;;;20.90;68.40;;;;;;4993527;28;20466;-73
2022/03/19 10:25:33;;;;;;;24.00;20.20;;;20.90;68.30;;;;;;4992495;28;20517;-72
2022/03/19 10:28:01;;;;;;;21.43;19.10;;;21.60;68.30;;;;;;4992896;28;20474;-72
2022/03/19 10:30:36;;;;;;;23.60;19.93;;;21.60;66.10;;;;;;4993577;28;20969;-73
2022/03/19 10:33:04;;;;;;;22.00;19.60;;;22.30;66.40;;;;;;4993428;28;20823;-73
2022/03/19 10:35:32;;;;;;;21.70;19.40;;;22.90;64.90;;;;;;4993310;28;20489;-73
2022/03/19 10:38:00;;;;;;;20.50;18.40;;;23.10;65.10;;;;;;4991168;28;20463;-73
2022/03/19 10:40:38;;;;;;;22.53;20.07;;;23.00;65.30;;;;;;4992931;28;20545;-73
2022/03/19 10:43:07;;;;;;;22.47;20.23;;;22.40;63.60;;;;;;4992217;28;20462;-72
2022/03/19 10:45:42;;;;;;;22.83;20.33;;;21.80;65.10;;;;;;4993016;28;20486;-72
2022/03/19 10:48:11;;;;;;;23.40;21.00;;;21.50;65.30;;;;;;4990222;28;20462;-72
2022/03/19 10:50:40;;;;;;;24.50;21.13;;;21.80;66.60;;;;;;4992521;28;20485;-73
2022/03/19 10:53:07;;;;;;;24.90;21.13;;;21.70;65.00;;;;;;4987077;28;20996;-73
2022/03/19 10:55:35;;;;;;;25.60;20.83;;;22.50;65.30;;;;;;4989060;28;20473;-73
2022/03/19 10:58:02;;;;;;;23.17;19.53;;;23.20;64.20;;;;;;4991854;28;20469;-73
2022/03/19 11:00:29;;;;;;;24.93;20.60;;;23.10;65.20;;;;;;4992594;28;20469;-73
2022/03/19 11:03:00;;;;;;;23.00;20.53;;;23.50;64.20;;;;;;4992179;28;20462;-72
2022/03/19 11:05:33;;;;;;;25.07;22.43;;;23.60;63.60;;;;;;4992022;28;21004;-72
2022/03/19 11:08:02;;;;;;;23.50;21.30;;;23.20;64.10;;;;;;4991479;28;20466;-72
2022/03/19 11:10:30;;;;;;;24.73;22.13;;;22.80;64.10;;;;;;4991030;28;20904;-72
2022/03/19 11:12:59;;;;;;;25.60;22.80;;;22.60;64.30;;;;;;4989317;28;20466;-71
2022/03/19 11:15:29;;;;;;;23.40;21.07;;;22.00;65.00;;;;;;4991764;28;20474;-72
2022/03/19 11:17:58;;;;;;;24.63;22.00;;;21.80;67.10;;;;;;4990525;28;20474;-71
2022/03/19 11:20:25;;;;;;;25.83;22.27;;;22.10;66.20;;;;;;4991108;28;21003;-72
2022/03/19 11:22:55;;;;;;;23.57;21.03;;;22.50;64.80;;;;;;4991699;28;20833;-71
2022/03/19 11:25:31;;;;;;;24.73;22.23;;;22.20;65.60;;;;;;4991630;28;20486;-72
2022/03/19 11:28:00;;;;;;;23.80;21.30;;;22.40;66.00;;;;;;4990865;28;20592;-72
2022/03/19 11:30:29;;;;;;;26.13;23.33;;;22.10;65.90;;;;;;4991341;28;20509;-72
2022/03/19 11:33:05;;;;;;;24.73;22.13;;;21.10;66.40;;;;;;4991176;28;20465;-72
2022/03/19 11:35:33;;;;;;;19.17;17.13;;;21.00;68.70;;;;;;4991210;28;20985;-72
2022/03/19 11:38:03;;;;;;;19.93;17.07;;;21.90;64.40;;;;;;4990925;28;20874;-71
2022/03/19 11:40:37;;;;;;;18.50;16.60;;;21.70;64.10;;;;;;4991315;28;20466;-72
2022/03/19 11:43:05;;;;;;;20.93;18.37;;;20.50;64.30;;;;;;4990894;28;20989;-74
2022/03/19 11:45:41;;;;;;;17.70;15.63;;;18.80;65.90;;;;;;4990930;28;20517;-74
2022/03/19 11:51:31;;;;;;;14.87;12.73;;;19.30;66.80;;;;;;5107424;27;20539;-71
2022/03/19 11:53:59;;;;;;;15.30;13.57;;;21.20;61.20;;;;;;5107602;28;20456;-72
2022/03/19 11:56:28;;;;;;;14.27;12.37;;;21.90;61.00;;;;;;5085697;28;20870;-72
2022/03/19 11:58:56;;;;;;;14.43;12.73;;;22.20;60.80;;;;;;5086717;28;20457;-72
2022/03/19 12:01:48;;;;;;;14.10;12.60;;;22.50;60.40;;;;;;5086786;28;20462;-72
2022/03/19 12:04:15;;;;;;;13.73;11.93;;;22.40;60.50;;;;;;5078486;28;20460;-72
2022/03/19 12:06:52;;;;;;;15.73;12.23;;;22.30;62.00;;;;;;5083961;28;20462;-72
2022/03/19 12:09:19;;;;;;;16.03;11.50;;;21.40;62.40;;;;;;5086327;28;20489;-71
2022/03/19 12:12:08;;;;;;;13.20;11.77;;;19.80;63.30;;;;;;5086094;28;20473;-71
2022/03/19 12:14:35;;;;;;;17.73;12.33;;;18.50;65.20;;;;;;5087262;28;20470;-71
2022/03/19 12:17:16;;;;;;;14.97;12.20;;;17.20;66.90;;;;;;5086419;28;20461;-72
2022/03/19 12:19:54;;;;;;;13.60;11.10;;;17.20;68.60;;;;;;5088106;28;20466;-72
2022/03/19 12:22:35;;;;;;;12.33;10.70;;;17.80;67.70;;;;;;5087337;28;20915;-72
2022/03/19 12:25:11;;;;;;;13.80;10.70;;;17.80;67.80;;;;;;5086729;28;20513;-72
2022/03/19 12:27:38;;;;;;;12.67;11.30;;;17.70;68.10;;;;;;5086096;28;20454;-71
2022/03/19 12:30:06;;;;;;;15.10;11.33;;;17.80;67.50;;;;;;5086559;28;20507;-72
2022/03/19 12:32:45;;;;;;;12.80;10.83;;;17.30;66.00;;;;;;5085870;28;20458;-71
2022/03/19 12:35:12;;;;;;;13.80;10.53;;;16.60;67.80;;;;;;5086020;28;20855;-71
2022/03/19 12:37:49;;;;;;;21.30;10.57;;;16.90;67.10;;;;;;5085648;28;20470;-72
2022/03/19 12:40:19;;;;;;;13.03;10.30;;;17.80;66.60;;;;;;5085518;28;20461;-72
2022/03/19 12:42:51;;;;;;;12.77;9.87;;;19.00;64.20;;;;;;5086292;28;20464;-72
2022/03/19 12:45:18;;;;;;;10.33;9.13;;;20.20;62.40;;;;;;5085114;28;20478;-71
2022/03/19 12:47:49;;;;;;;12.27;9.50;;;21.20;60.70;;;;;;5085033;28;20484;-72
2022/03/19 12:50:18;;;;;;;13.90;9.90;;;20.80;60.50;;;;;;5085965;28;21019;-71
2022/03/19 12:52:45;;;;;;;12.10;9.87;;;19.00;61.40;;;;;;5085996;28;20486;-71
2022/03/19 12:55:21;;;;;;;11.23;10.10;;;17.90;63.70;;;;;;5085386;28;20492;-71
2022/03/19 12:57:56;;;;;;;11.90;10.00;;;17.30;63.90;;;;;;5084634;28;21268;-71
2022/03/19 13:00:23;;;;;;;12.70;9.33;;;17.60;63.50;;;;;;5085477;28;20454;-71
2022/03/19 13:02:51;;;;;;;40.23;11.53;;;18.50;62.90;;;;;;5071194;28;20467;-71
2022/03/19 13:05:17;;;;;;;13.93;9.73;;;19.20;64.10;;;;;;5072049;28;20851;-71